Main page
METAR-TAF:

METAR-TAF

Airports :

Chumphon Airport

Chumphon, Thailand

latitude: 10-42-40N, longitude: 099-21-42E, elevation: 5 m

Current weather observation

The report was made 51 minutes ago, at 06:00 UTC
Wind 7 kt from the Southeast, varying between East and South
Temperature 31°C
Humidity 63%
Pressure 1010 hPa
Visibility 10 km or more
Few clouds at a height of 2000 ft

METAR: VTSE 270600Z 14007KT 100V190 9999 FEW020 31/23 Q1010 NOSIG

Time: 13:51 (06:51 UTC)

Forecast

The report was made 1 hour and 51 minutes ago, at 05:00 UTC
Forecast valid from 27 at 06 UTC to 28 at 06 UTC
Wind 8 kt from the Southeast
Visibility 10 km or more
Scattered clouds at a height of 2000 ft

TAF: VTSE 270500Z 2706/2806 14008KT 9999 SCT020

Weather observations and forecasts of more than 4000 airports (METAR and TAF reports).

The available stations are represented by yellow and red dots on the map.

Hover mouse over dot to see the name of the station.

Then click to see weather observations and forecasts.

To change the map : click on the green buttons with a black cross to zoom in, on the green button with a dash to zoom out, or on the green arrows for adjacent maps.


METAR-TAF: